4AL8 weather

Milton Airport
Huntsville, Alabama, United States

Public forecast

Using degrees Fahrenheit for public forecast. Weather courtesy of forecast.io.

Closest aviation weather report (METAR) to Milton Airport

Closest report is Huntsville International Carl T Jones Field, 10.1 nm (18.8 km) NNW. Retrieved 2019/10/21 08:53 UTC (47 minutes ago):

KHSV 210853Z AUTO 14009KT 10SM BKN095 16/16 A2987 RMK AO2 SLP110 T01610156 56018

Closest aviation forecast (TAF) to Milton Airport

Closest forecast is Huntsville International Carl T Jones Field, 10.1 nm (18.8 km) NNW. Retrieved 2019/10/21 06:22 UTC (3 hours ago):

TAF KHSV 210520Z 2106/2206 16008KT P6SM SCT050 BKN250 FM210800 17010KT P6SM FEW080 SCT250 FM211000 17012G20KT P6SM OVC015 FM212000 17012G20KT P6SM VCSH OVC015 FM212200 18012G20KT 4SM SHRA VCTS BKN008 OVC015CB FM220000 20010KT 4SM RA OVC008 FM220300 30008KT P6SM SCT015 BKN025